sensor_id;sensor_type;location;lat;lon;timestamp;temperature;humidity
4429;DHT22;2227;47.810;8.810;2023-01-19T04:46:15;-2.60;99.90
4429;DHT22;2227;47.810;8.810;2023-01-19T04:48:42;-2.80;99.90
4429;DHT22;2227;47.810;8.810;2023-01-19T04:51:08;-2.70;99.90
4429;DHT22;2227;47.810;8.810;2023-01-19T04:53:35;-3.00;99.90
4429;DHT22;2227;47.810;8.810;2023-01-19T04:56:02;-3.00;99.90
4429;DHT22;2227;47.810;8.810;2023-01-19T04:58:29;-3.00;99.90
4429;DHT22;2227;47.810;8.810;2023-01-19T05:00:55;-3.00;99.90
4429;DHT22;2227;47.810;8.810;2023-01-19T05:03:22;-2.90;99.90
4429;DHT22;2227;47.810;8.810;2023-01-19T05:05:52;-2.90;99.90
4429;DHT22;2227;47.810;8.810;2023-01-19T05:08:18;-2.90;99.90
4429;DHT22;2227;47.810;8.810;2023-01-19T05:10:46;-2.90;99.90
4429;DHT22;2227;47.810;8.810;2023-01-19T05:13:13;-2.90;99.90
4429;DHT22;2227;47.810;8.810;2023-01-19T05:15:40;-2.90;99.90
4429;DHT22;2227;47.810;8.810;2023-01-19T05:18:07;-3.00;99.90
4429;DHT22;2227;47.810;8.810;2023-01-19T05:20:34;-3.10;99.90
4429;DHT22;2227;47.810;8.810;2023-01-19T05:23:01;-3.10;99.90
4429;DHT22;2227;47.810;8.810;2023-01-19T05:25:28;-3.10;99.90
4429;DHT22;2227;47.810;8.810;2023-01-19T05:27:54;-3.20;99.90
4429;DHT22;2227;47.810;8.810;2023-01-19T05:30:21;-3.20;99.90
4429;DHT22;2227;47.810;8.810;2023-01-19T05:32:48;-3.30;99.90
4429;DHT22;2227;47.810;8.810;2023-01-19T05:35:14;-3.30;99.90
4429;DHT22;2227;47.810;8.810;2023-01-19T05:37:50;-3.50;99.90
4429;DHT22;2227;47.810;8.810;2023-01-19T05:40:17;-3.50;99.90
4429;DHT22;2227;47.810;8.810;2023-01-19T05:42:43;-3.30;99.90
4429;DHT22;2227;47.810;8.810;2023-01-19T05:45:10;-3.30;99.90
4429;DHT22;2227;47.810;8.810;2023-01-19T05:47:38;-3.40;99.90
4429;DHT22;2227;47.810;8.810;2023-01-19T05:50:05;-3.30;99.90
4429;DHT22;2227;47.810;8.810;2023-01-19T05:52:32;-3.20;99.90
4429;DHT22;2227;47.810;8.810;2023-01-19T05:54:59;-3.30;99.90
4429;DHT22;2227;47.810;8.810;2023-01-19T05:57:25;-3.20;99.90
4429;DHT22;2227;47.810;8.810;2023-01-19T05:59:52;-3.50;99.90
4429;DHT22;2227;47.810;8.810;2023-01-19T06:02:19;-3.50;99.90
4429;DHT22;2227;47.810;8.810;2023-01-19T06:04:46;-3.70;99.90
4429;DHT22;2227;47.810;8.810;2023-01-19T06:07:12;-3.50;99.90
4429;DHT22;2227;47.810;8.810;2023-01-19T06:09:39;-3.50;99.90
4429;DHT22;2227;47.810;8.810;2023-01-19T06:12:06;-3.50;99.90
4429;DHT22;2227;47.810;8.810;2023-01-19T06:14:32;-3.40;99.90
4429;DHT22;2227;47.810;8.810;2023-01-19T06:16:59;-3.30;99.90
4429;DHT22;2227;47.810;8.810;2023-01-19T06:19:26;-3.40;99.90
4429;DHT22;2227;47.810;8.810;2023-01-19T06:21:53;-3.40;99.90
4429;DHT22;2227;47.810;8.810;2023-01-19T06:24:20;-3.40;99.90
4429;DHT22;2227;47.810;8.810;2023-01-19T06:26:46;-3.40;99.90
4429;DHT22;2227;47.810;8.810;2023-01-19T06:29:13;-3.30;99.90
4429;DHT22;2227;47.810;8.810;2023-01-19T06:31:40;-3.20;99.90
4429;DHT22;2227;47.810;8.810;2023-01-19T06:34:07;-3.30;99.90
4429;DHT22;2227;47.810;8.810;2023-01-19T06:36:34;-3.40;99.90
4429;DHT22;2227;47.810;8.810;2023-01-19T06:39:01;-3.40;99.90
4429;DHT22;2227;47.810;8.810;2023-01-19T06:41:32;-3.50;99.90
4429;DHT22;2227;47.810;8.810;2023-01-19T06:43:59;-3.50;99.90
4429;DHT22;2227;47.810;8.810;2023-01-19T06:46:25;-3.50;99.90
4429;DHT22;2227;47.810;8.810;2023-01-19T06:48:53;-3.40;99.90
4429;DHT22;2227;47.810;8.810;2023-01-19T06:51:21;-3.40;99.90
4429;DHT22;2227;47.810;8.810;2023-01-19T06:53:47;-3.40;99.90
4429;DHT22;2227;47.810;8.810;2023-01-19T06:56:14;-3.50;99.90
4429;DHT22;2227;47.810;8.810;2023-01-19T06:58:41;-3.50;99.90
4429;DHT22;2227;47.810;8.810;2023-01-19T07:01:09;-3.40;99.90
4429;DHT22;2227;47.810;8.810;2023-01-19T07:03:35;-3.40;99.90
4429;DHT22;2227;47.810;8.810;2023-01-19T07:06:04;-3.60;99.90
4429;DHT22;2227;47.810;8.810;2023-01-19T07:08:33;-3.80;99.90
4429;DHT22;2227;47.810;8.810;2023-01-19T07:11:08;-3.70;99.90
4429;DHT22;2227;47.810;8.810;2023-01-19T07:13:55;-3.60;99.90
4429;DHT22;2227;47.810;8.810;2023-01-19T07:16:22;-3.60;99.90
4429;DHT22;2227;47.810;8.810;2023-01-19T07:18:49;-3.50;99.90
4429;DHT22;2227;47.810;8.810;2023-01-19T07:21:16;-3.50;99.90
4429;DHT22;2227;47.810;8.810;2023-01-19T07:23:43;-3.60;99.90
4429;DHT22;2227;47.810;8.810;2023-01-19T07:26:10;-3.70;99.90
4429;DHT22;2227;47.810;8.810;2023-01-19T07:28:36;-3.60;99.90
4429;DHT22;2227;47.810;8.810;2023-01-19T07:31:03;-3.60;99.90
4429;DHT22;2227;47.810;8.810;2023-01-19T07:33:30;-3.60;99.90
4429;DHT22;2227;47.810;8.810;2023-01-19T07:35:57;-3.60;99.90
4429;DHT22;2227;47.810;8.810;2023-01-19T07:38:24;-3.70;99.90
4429;DHT22;2227;47.810;8.810;2023-01-19T07:40:51;-3.80;99.90
4429;DHT22;2227;47.810;8.810;2023-01-19T07:43:17;-3.90;99.90
4429;DHT22;2227;47.810;8.810;2023-01-19T07:45:44;-3.70;99.90
4429;DHT22;2227;47.810;8.810;2023-01-19T07:48:11;-3.60;99.90
4429;DHT22;2227;47.810;8.810;2023-01-19T07:50:38;-3.50;99.90
4429;DHT22;2227;47.810;8.810;2023-01-19T07:53:06;-3.40;99.90
4429;DHT22;2227;47.810;8.810;2023-01-19T07:55:33;-3.30;99.90
4429;DHT22;2227;47.810;8.810;2023-01-19T07:58:00;-3.20;99.90
4429;DHT22;2227;47.810;8.810;2023-01-19T08:00:26;-3.10;99.90
4429;DHT22;2227;47.810;8.810;2023-01-19T08:02:59;-3.30;99.90
4429;DHT22;2227;47.810;8.810;2023-01-19T08:05:27;-3.30;99.90
4429;DHT22;2227;47.810;8.810;2023-01-19T08:07:57;-3.30;99.90
4429;DHT22;2227;47.810;8.810;2023-01-19T08:10:25;-3.10;99.90
4429;DHT22;2227;47.810;8.810;2023-01-19T08:12:53;-3.00;99.90
4429;DHT22;2227;47.810;8.810;2023-01-19T08:15:20;-2.80;99.90
4429;DHT22;2227;47.810;8.810;2023-01-19T08:17:56;-2.70;99.90
4429;DHT22;2227;47.810;8.810;2023-01-19T08:20:24;-2.60;99.90
4429;DHT22;2227;47.810;8.810;2023-01-19T08:22:51;-2.70;99.90
4429;DHT22;2227;47.810;8.810;2023-01-19T08:25:31;-2.40;99.90
4429;DHT22;2227;47.810;8.810;2023-01-19T08:27:58;-2.30;99.90
4429;DHT22;2227;47.810;8.810;2023-01-19T08:30:25;-2.10;99.90
4429;DHT22;2227;47.810;8.810;2023-01-19T08:32:55;-1.90;99.90
4429;DHT22;2227;47.810;8.810;2023-01-19T08:35:30;-2.00;99.90
4429;DHT22;2227;47.810;8.810;2023-01-19T08:37:57;-1.60;99.90
4429;DHT22;2227;47.810;8.810;2023-01-19T08:40:27;-1.00;99.90
4429;DHT22;2227;47.810;8.810;2023-01-19T08:42:59;-0.10;99.90
4429;DHT22;2227;47.810;8.810;2023-01-19T08:45:36;0.50;99.90
4429;DHT22;2227;47.810;8.810;2023-01-19T08:48:03;1.40;99.90
4429;DHT22;2227;47.810;8.810;2023-01-19T08:50:31;2.20;99.90
4429;DHT22;2227;47.810;8.810;2023-01-19T08:52:58;3.20;99.90
4429;DHT22;2227;47.810;8.810;2023-01-19T08:55:26;4.20;99.90
4429;DHT22;2227;47.810;8.810;2023-01-19T08:57:53;4.80;99.90
4429;DHT22;2227;47.810;8.810;2023-01-19T09:00:20;5.10;99.90
4429;DHT22;2227;47.810;8.810;2023-01-19T09:02:47;5.60;99.90
4429;DHT22;2227;47.810;8.810;2023-01-19T09:05:14;6.00;99.90
4429;DHT22;2227;47.810;8.810;2023-01-19T09:07:42;6.30;99.30
4429;DHT22;2227;47.810;8.810;2023-01-19T09:10:09;6.50;98.20
4429;DHT22;2227;47.810;8.810;2023-01-19T09:12:35;6.90;97.00
4429;DHT22;2227;47.810;8.810;2023-01-19T09:15:02;7.20;96.30
4429;DHT22;2227;47.810;8.810;2023-01-19T09:17:29;7.60;94.40
4429;DHT22;2227;47.810;8.810;2023-01-19T09:19:56;8.10;92.90
4429;DHT22;2227;47.810;8.810;2023-01-19T09:22:22;7.90;93.40
4429;DHT22;2227;47.810;8.810;2023-01-19T09:24:49;7.90;94.50
4429;DHT22;2227;47.810;8.810;2023-01-19T09:27:15;7.00;96.10
4429;DHT22;2227;47.810;8.810;2023-01-19T09:29:42;6.30;97.60
4429;DHT22;2227;47.810;8.810;2023-01-19T09:32:15;6.70;98.80
4429;DHT22;2227;47.810;8.810;2023-01-19T09:34:42;7.70;97.60
4429;DHT22;2227;47.810;8.810;2023-01-19T09:37:09;9.00;94.30
4429;DHT22;2227;47.810;8.810;2023-01-19T09:39:35;10.10;92.10
4429;DHT22;2227;47.810;8.810;2023-01-19T09:42:12;10.90;89.10
4429;DHT22;2227;47.810;8.810;2023-01-19T09:44:43;11.90;84.30
4429;DHT22;2227;47.810;8.810;2023-01-19T09:47:12;12.70;80.20
4429;DHT22;2227;47.810;8.810;2023-01-19T09:49:44;13.20;74.80
4429;DHT22;2227;47.810;8.810;2023-01-19T09:52:11;13.70;72.00
4429;DHT22;2227;47.810;8.810;2023-01-19T09:57:09;12.70;70.80
4429;DHT22;2227;47.810;8.810;2023-01-19T09:59:37;12.70;70.80
4429;DHT22;2227;47.810;8.810;2023-01-19T10:02:16;12.10;71.60
4429;DHT22;2227;47.810;8.810;2023-01-19T10:04:57;11.80;73.10
4429;DHT22;2227;47.810;8.810;2023-01-19T10:08:07;10.30;74.00
4429;DHT22;2227;47.810;8.810;2023-01-19T10:10:19;10.00;79.00
4429;DHT22;2227;47.810;8.810;2023-01-19T10:18:19;9.10;83.30
4429;DHT22;2227;47.810;8.810;2023-01-19T10:20:52;9.40;81.40
4429;DHT22;2227;47.810;8.810;2023-01-19T10:26:06;9.50;82.10
4429;DHT22;2227;47.810;8.810;2023-01-19T10:28:33;9.30;84.90
4429;DHT22;2227;47.810;8.810;2023-01-19T10:31:01;9.90;80.50
4429;DHT22;2227;47.810;8.810;2023-01-19T10:33:31;9.90;80.70
4429;DHT22;2227;47.810;8.810;2023-01-19T10:35:58;8.80;82.90
4429;DHT22;2227;47.810;8.810;2023-01-19T10:38:24;7.90;87.60
4429;DHT22;2227;47.810;8.810;2023-01-19T10:40:55;8.10;88.40
4429;DHT22;2227;47.810;8.810;2023-01-19T10:43:36;8.50;88.30
4429;DHT22;2227;47.810;8.810;2023-01-19T10:46:07;9.40;85.50
4429;DHT22;2227;47.810;8.810;2023-01-19T10:48:39;9.70;82.50
4429;DHT22;2227;47.810;8.810;2023-01-19T10:51:07;9.60;82.80
4429;DHT22;2227;47.810;8.810;2023-01-19T10:53:34;8.10;85.40
4429;DHT22;2227;47.810;8.810;2023-01-19T10:58:36;6.90;91.30
4429;DHT22;2227;47.810;8.810;2023-01-19T11:01:21;7.30;92.00
4429;DHT22;2227;47.810;8.810;2023-01-19T11:03:49;7.60;91.40
4429;DHT22;2227;47.810;8.810;2023-01-19T11:06:24;8.50;90.20
4429;DHT22;2227;47.810;8.810;2023-01-19T11:08:51;8.70;86.80
4429;DHT22;2227;47.810;8.810;2023-01-19T11:11:18;7.70;90.00
4429;DHT22;2227;47.810;8.810;2023-01-19T11:14:00;6.50;91.80
4429;DHT22;2227;47.810;8.810;2023-01-19T11:16:28;6.30;92.70
4429;DHT22;2227;47.810;8.810;2023-01-19T11:18:56;5.40;94.10
4429;DHT22;2227;47.810;8.810;2023-01-19T11:21:26;4.80;95.40
4429;DHT22;2227;47.810;8.810;2023-01-19T11:23:56;4.80;97.10
4429;DHT22;2227;47.810;8.810;2023-01-19T11:26:33;5.00;97.40
4429;DHT22;2227;47.810;8.810;2023-01-19T11:29:01;5.10;97.10
4429;DHT22;2227;47.810;8.810;2023-01-19T11:33:56;5.60;97.10
4429;DHT22;2227;47.810;8.810;2023-01-19T11:36:30;6.00;95.30
4429;DHT22;2227;47.810;8.810;2023-01-19T11:38:58;5.70;96.00
4429;DHT22;2227;47.810;8.810;2023-01-19T11:43:52;5.30;97.10
4429;DHT22;2227;47.810;8.810;2023-01-19T11:46:20;5.10;98.10
4429;DHT22;2227;47.810;8.810;2023-01-19T11:49:03;4.50;98.90
4429;DHT22;2227;47.810;8.810;2023-01-19T11:54:40;4.10;99.90
4429;DHT22;2227;47.810;8.810;2023-01-19T11:57:12;3.90;99.90
4429;DHT22;2227;47.810;8.810;2023-01-19T11:59:40;4.00;99.90
4429;DHT22;2227;47.810;8.810;2023-01-19T12:04:53;3.60;99.90
4429;DHT22;2227;47.810;8.810;2023-01-19T12:07:22;3.40;99.90
4429;DHT22;2227;47.810;8.810;2023-01-19T12:09:52;3.40;99.90
4429;DHT22;2227;47.810;8.810;2023-01-19T12:12:31;3.20;99.90
4429;DHT22;2227;47.810;8.810;2023-01-19T12:17:26;3.60;99.90
4429;DHT22;2227;47.810;8.810;2023-01-19T12:20:36;3.60;99.90
4429;DHT22;2227;47.810;8.810;2023-01-19T12:22:52;3.50;99.90
4429;DHT22;2227;47.810;8.810;2023-01-19T12:25:39;3.30;99.90
4429;DHT22;2227;47.810;8.810;2023-01-19T12:28:08;3.10;99.90
4429;DHT22;2227;47.810;8.810;2023-01-19T12:30:37;3.20;99.90
4429;DHT22;2227;47.810;8.810;2023-01-19T12:35:56;3.40;99.90
4429;DHT22;2227;47.810;8.810;2023-01-19T12:40:49;3.20;99.90
4429;DHT22;2227;47.810;8.810;2023-01-19T12:43:30;3.20;99.90
4429;DHT22;2227;47.810;8.810;2023-01-19T12:45:57;3.10;99.90
4429;DHT22;2227;47.810;8.810;2023-01-19T12:48:24;3.00;99.90
4429;DHT22;2227;47.810;8.810;2023-01-19T12:50:51;2.70;99.90
4429;DHT22;2227;47.810;8.810;2023-01-19T12:53:18;2.90;99.90
4429;DHT22;2227;47.810;8.810;2023-01-19T12:55:45;2.80;99.90
4429;DHT22;2227;47.810;8.810;2023-01-19T12:58:22;2.80;99.90
4429;DHT22;2227;47.810;8.810;2023-01-19T13:01:10;2.60;99.90
4429;DHT22;2227;47.810;8.810;2023-01-19T13:03:42;2.80;99.90
4429;DHT22;2227;47.810;8.810;2023-01-19T13:06:08;2.60;99.90
4429;DHT22;2227;47.810;8.810;2023-01-19T13:11:31;2.50;99.90
4429;DHT22;2227;47.810;8.810;2023-01-19T13:21:36;2.60;99.90
4429;DHT22;2227;47.810;8.810;2023-01-19T13:24:10;2.80;99.90
4429;DHT22;2227;47.810;8.810;2023-01-19T13:26:38;2.90;99.90
4429;DHT22;2227;47.810;8.810;2023-01-19T13:29:05;2.80;99.90
4429;DHT22;2227;47.810;8.810;2023-01-19T13:31:33;2.70;99.90
4429;DHT22;2227;47.810;8.810;2023-01-19T13:34:00;3.00;99.90
4429;DHT22;2227;47.810;8.810;2023-01-19T13:36:34;3.40;99.90
4429;DHT22;2227;47.810;8.810;2023-01-19T13:39:05;3.40;99.90
4429;DHT22;2227;47.810;8.810;2023-01-19T13:41:34;3.50;99.90
4429;DHT22;2227;47.810;8.810;2023-01-19T13:44:20;3.70;99.90
4429;DHT22;2227;47.810;8.810;2023-01-19T13:46:50;3.80;99.90
4429;DHT22;2227;47.810;8.810;2023-01-19T13:49:21;3.60;99.90
4429;DHT22;2227;47.810;8.810;2023-01-19T13:54:30;3.20;99.90
4429;DHT22;2227;47.810;8.810;2023-01-19T13:56:56;3.10;99.90
4429;DHT22;2227;47.810;8.810;2023-01-19T13:59:23;3.30;99.90
4429;DHT22;2227;47.810;8.810;2023-01-19T14:01:49;3.40;99.90
4429;DHT22;2227;47.810;8.810;2023-01-19T14:04:31;3.40;99.90
4429;DHT22;2227;47.810;8.810;2023-01-19T14:07:02;3.30;99.90
4429;DHT22;2227;47.810;8.810;2023-01-19T14:09:29;3.70;99.90
4429;DHT22;2227;47.810;8.810;2023-01-19T14:12:30;3.40;99.90
4429;DHT22;2227;47.810;8.810;2023-01-19T14:14:51;3.50;99.90
4429;DHT22;2227;47.810;8.810;2023-01-19T14:17:21;3.90;99.90
4429;DHT22;2227;47.810;8.810;2023-01-19T14:19:55;3.60;99.90
4429;DHT22;2227;47.810;8.810;2023-01-19T14:22:44;3.40;99.90
4429;DHT22;2227;47.810;8.810;2023-01-19T14:25:21;3.40;99.90
4429;DHT22;2227;47.810;8.810;2023-01-19T14:27:47;3.20;99.90
4429;DHT22;2227;47.810;8.810;2023-01-19T14:30:19;3.40;99.90
4429;DHT22;2227;47.810;8.810;2023-01-19T14:32:46;3.70;99.90
4429;DHT22;2227;47.810;8.810;2023-01-19T14:35:14;3.70;99.90
4429;DHT22;2227;47.810;8.810;2023-01-19T14:37:48;3.80;99.90
4429;DHT22;2227;47.810;8.810;2023-01-19T14:40:19;3.70;99.90
4429;DHT22;2227;47.810;8.810;2023-01-19T14:42:56;3.90;99.90
4429;DHT22;2227;47.810;8.810;2023-01-19T14:47:53;3.50;99.90
4429;DHT22;2227;47.810;8.810;2023-01-19T14:50:24;3.70;99.90
4429;DHT22;2227;47.810;8.810;2023-01-19T14:55:25;3.40;99.90
4429;DHT22;2227;47.810;8.810;2023-01-19T14:57:54;3.10;99.90
4429;DHT22;2227;47.810;8.810;2023-01-19T15:00:20;3.00;99.90
4429;DHT22;2227;47.810;8.810;2023-01-19T15:02:47;3.10;99.90
4429;DHT22;2227;47.810;8.810;2023-01-19T15:05:14;3.30;99.90
4429;DHT22;2227;47.810;8.810;2023-01-19T15:07:42;3.30;99.90
4429;DHT22;2227;47.810;8.810;2023-01-19T15:10:12;3.50;99.90
4429;DHT22;2227;47.810;8.810;2023-01-19T15:12:41;3.10;99.90
4429;DHT22;2227;47.810;8.810;2023-01-19T15:15:14;2.90;99.90
4429;DHT22;2227;47.810;8.810;2023-01-19T15:17:41;3.20;99.90
4429;DHT22;2227;47.810;8.810;2023-01-19T15:20:16;3.20;99.90
4429;DHT22;2227;47.810;8.810;2023-01-19T15:22:43;3.20;99.90
4429;DHT22;2227;47.810;8.810;2023-01-19T15:25:14;3.10;99.90
4429;DHT22;2227;47.810;8.810;2023-01-19T15:27:41;3.00;99.90
4429;DHT22;2227;47.810;8.810;2023-01-19T15:30:27;3.10;99.90
4429;DHT22;2227;47.810;8.810;2023-01-19T15:32:56;3.20;99.90
4429;DHT22;2227;47.810;8.810;2023-01-19T15:35:24;3.20;99.90
4429;DHT22;2227;47.810;8.810;2023-01-19T15:37:54;3.40;99.90
4429;DHT22;2227;47.810;8.810;2023-01-19T15:40:20;3.40;99.90
4429;DHT22;2227;47.810;8.810;2023-01-19T15:42:49;3.50;99.90
4429;DHT22;2227;47.810;8.810;2023-01-19T15:47:42;3.40;99.90
4429;DHT22;2227;47.810;8.810;2023-01-19T15:50:08;3.40;99.90
4429;DHT22;2227;47.810;8.810;2023-01-19T15:52:35;3.20;99.90
4429;DHT22;2227;47.810;8.810;2023-01-19T15:55:02;3.10;99.90
4429;DHT22;2227;47.810;8.810;2023-01-19T15:57:28;2.80;99.90
4429;DHT22;2227;47.810;8.810;2023-01-19T15:59:55;2.70;99.90
4429;DHT22;2227;47.810;8.810;2023-01-19T16:02:21;2.70;99.90
4429;DHT22;2227;47.810;8.810;2023-01-19T16:04:48;2.70;99.90
4429;DHT22;2227;47.810;8.810;2023-01-19T16:07:15;2.60;99.90
4429;DHT22;2227;47.810;8.810;2023-01-19T16:09:41;2.50;99.90
4429;DHT22;2227;47.810;8.810;2023-01-19T16:12:08;2.20;99.90
4429;DHT22;2227;47.810;8.810;2023-01-19T16:14:35;2.10;99.90
4429;DHT22;2227;47.810;8.810;2023-01-19T16:17:01;2.30;99.90
4429;DHT22;2227;47.810;8.810;2023-01-19T16:19:28;2.40;99.90
4429;DHT22;2227;47.810;8.810;2023-01-19T16:21:55;2.40;99.90
4429;DHT22;2227;47.810;8.810;2023-01-19T16:24:21;2.30;99.90
4429;DHT22;2227;47.810;8.810;2023-01-19T16:26:48;2.20;99.90
4429;DHT22;2227;47.810;8.810;2023-01-19T16:29:14;2.20;99.90
4429;DHT22;2227;47.810;8.810;2023-01-19T16:31:43;2.10;99.90
4429;DHT22;2227;47.810;8.810;2023-01-19T16:34:11;2.20;99.90
4429;DHT22;2227;47.810;8.810;2023-01-19T16:36:38;2.10;99.90
4429;DHT22;2227;47.810;8.810;2023-01-19T16:39:09;2.10;99.90
4429;DHT22;2227;47.810;8.810;2023-01-19T16:41:37;2.20;99.90
4429;DHT22;2227;47.810;8.810;2023-01-19T16:44:03;2.30;99.90
4429;DHT22;2227;47.810;8.810;2023-01-19T16:46:31;2.60;99.90
4429;DHT22;2227;47.810;8.810;2023-01-19T16:49:00;2.50;99.90
4429;DHT22;2227;47.810;8.810;2023-01-19T16:51:27;2.50;99.90
4429;DHT22;2227;47.810;8.810;2023-01-19T16:53:54;2.40;99.90
4429;DHT22;2227;47.810;8.810;2023-01-19T16:56:20;2.50;99.90
4429;DHT22;2227;47.810;8.810;2023-01-19T16:58:47;2.50;99.90
4429;DHT22;2227;47.810;8.810;2023-01-19T17:01:14;2.30;99.90
4429;DHT22;2227;47.810;8.810;2023-01-19T17:03:45;2.40;99.90
4429;DHT22;2227;47.810;8.810;2023-01-19T17:06:13;2.50;99.90
4429;DHT22;2227;47.810;8.810;2023-01-19T17:08:40;2.40;99.90
4429;DHT22;2227;47.810;8.810;2023-01-19T17:11:10;2.20;99.90
4429;DHT22;2227;47.810;8.810;2023-01-19T17:13:37;2.30;99.90
4429;DHT22;2227;47.810;8.810;2023-01-19T17:16:04;2.30;99.90
4429;DHT22;2227;47.810;8.810;2023-01-19T17:18:32;2.30;99.90
4429;DHT22;2227;47.810;8.810;2023-01-19T17:20:59;2.40;99.90
4429;DHT22;2227;47.810;8.810;2023-01-19T17:23:27;2.30;99.90
4429;DHT22;2227;47.810;8.810;2023-01-19T17:25:54;2.00;99.90
4429;DHT22;2227;47.810;8.810;2023-01-19T17:28:20;1.90;99.90
4429;DHT22;2227;47.810;8.810;2023-01-19T17:30:47;1.90;99.90
4429;DHT22;2227;47.810;8.810;2023-01-19T17:33:17;1.80;99.90
4429;DHT22;2227;47.810;8.810;2023-01-19T17:35:44;1.80;99.90
4429;DHT22;2227;47.810;8.810;2023-01-19T17:38:12;1.80;99.90
4429;DHT22;2227;47.810;8.810;2023-01-19T17:40:39;2.00;99.90
4429;DHT22;2227;47.810;8.810;2023-01-19T17:43:06;2.10;99.90
4429;DHT22;2227;47.810;8.810;2023-01-19T17:45:33;2.00;99.90
4429;DHT22;2227;47.810;8.810;2023-01-19T17:48:00;1.90;99.90
4429;DHT22;2227;47.810;8.810;2023-01-19T17:50:26;1.80;99.90
4429;DHT22;2227;47.810;8.810;2023-01-19T17:52:53;1.80;99.90
4429;DHT22;2227;47.810;8.810;2023-01-19T17:55:19;1.90;99.90
4429;DHT22;2227;47.810;8.810;2023-01-19T17:57:46;1.60;99.90
4429;DHT22;2227;47.810;8.810;2023-01-19T18:00:13;1.70;99.90
4429;DHT22;2227;47.810;8.810;2023-01-19T18:02:40;1.60;99.90
4429;DHT22;2227;47.810;8.810;2023-01-19T18:05:07;1.70;99.90
4429;DHT22;2227;47.810;8.810;2023-01-19T18:07:38;1.80;99.90
4429;DHT22;2227;47.810;8.810;2023-01-19T18:10:05;1.80;99.90
4429;DHT22;2227;47.810;8.810;2023-01-19T18:12:33;1.80;99.90
4429;DHT22;2227;47.810;8.810;2023-01-19T18:15:00;1.60;99.90
4429;DHT22;2227;47.810;8.810;2023-01-19T18:17:26;1.70;99.90
4429;DHT22;2227;47.810;8.810;2023-01-19T18:19:53;1.70;99.90
4429;DHT22;2227;47.810;8.810;2023-01-19T18:22:20;1.70;99.90
4429;DHT22;2227;47.810;8.810;2023-01-19T18:24:46;1.70;99.90
4429;DHT22;2227;47.810;8.810;2023-01-19T18:27:14;1.80;99.90
4429;DHT22;2227;47.810;8.810;2023-01-19T18:29:42;1.60;99.90
4429;DHT22;2227;47.810;8.810;2023-01-19T18:32:08;1.50;99.90
4429;DHT22;2227;47.810;8.810;2023-01-19T18:34:35;1.40;99.90
4429;DHT22;2227;47.810;8.810;2023-01-19T18:37:02;1.40;99.90
4429;DHT22;2227;47.810;8.810;2023-01-19T18:39:28;1.40;99.90
4429;DHT22;2227;47.810;8.810;2023-01-19T18:41:56;1.40;99.90
4429;DHT22;2227;47.810;8.810;2023-01-19T18:44:23;1.40;99.90
4429;DHT22;2227;47.810;8.810;2023-01-19T18:46:49;1.30;99.90
4429;DHT22;2227;47.810;8.810;2023-01-19T18:49:16;1.40;99.90
4429;DHT22;2227;47.810;8.810;2023-01-19T18:51:42;1.40;99.90
4429;DHT22;2227;47.810;8.810;2023-01-19T18:54:09;1.30;99.90
4429;DHT22;2227;47.810;8.810;2023-01-19T18:56:36;1.20;99.90
4429;DHT22;2227;47.810;8.810;2023-01-19T18:59:02;1.00;99.90
4429;DHT22;2227;47.810;8.810;2023-01-19T19:01:31;0.80;99.90
4429;DHT22;2227;47.810;8.810;2023-01-19T19:03:59;0.80;99.90
4429;DHT22;2227;47.810;8.810;2023-01-19T19:06:26;0.70;99.90
4429;DHT22;2227;47.810;8.810;2023-01-19T19:08:53;0.60;99.90
4429;DHT22;2227;47.810;8.810;2023-01-19T19:11:21;0.50;99.90
4429;DHT22;2227;47.810;8.810;2023-01-19T19:13:52;0.40;99.90
4429;DHT22;2227;47.810;8.810;2023-01-19T19:16:18;0.40;99.90
4429;DHT22;2227;47.810;8.810;2023-01-19T19:18:45;0.40;99.90
4429;DHT22;2227;47.810;8.810;2023-01-19T19:21:16;0.10;99.90
4429;DHT22;2227;47.810;8.810;2023-01-19T19:23:42;-0.20;99.90
4429;DHT22;2227;47.810;8.810;2023-01-19T19:26:10;-0.10;99.90
4429;DHT22;2227;47.810;8.810;2023-01-19T19:28:37;-0.10;99.90
4429;DHT22;2227;47.810;8.810;2023-01-19T19:31:05;-0.10;99.90
4429;DHT22;2227;47.810;8.810;2023-01-19T19:33:33;-0.10;99.90
4429;DHT22;2227;47.810;8.810;2023-01-19T19:35:59;-0.10;99.90
4429;DHT22;2227;47.810;8.810;2023-01-19T19:38:26;-0.10;99.90
4429;DHT22;2227;47.810;8.810;2023-01-19T19:40:53;0.00;99.90
4429;DHT22;2227;47.810;8.810;2023-01-19T19:43:22;0.10;99.90
4429;DHT22;2227;47.810;8.810;2023-01-19T19:45:58;0.00;99.90
4429;DHT22;2227;47.810;8.810;2023-01-19T19:48:26;-0.10;99.90
4429;DHT22;2227;47.810;8.810;2023-01-19T19:50:53;-0.20;99.90
4429;DHT22;2227;47.810;8.810;2023-01-19T19:53:21;-0.20;99.90
4429;DHT22;2227;47.810;8.810;2023-01-19T19:55:54;-0.30;99.90
4429;DHT22;2227;47.810;8.810;2023-01-19T19:58:22;-0.30;99.90
4429;DHT22;2227;47.810;8.810;2023-01-19T20:00:48;-0.30;99.90
4429;DHT22;2227;47.810;8.810;2023-01-19T20:03:15;-0.40;99.90
4429;DHT22;2227;47.810;8.810;2023-01-19T20:05:42;-0.40;99.90
4429;DHT22;2227;47.810;8.810;2023-01-19T20:08:09;-0.40;99.90
4429;DHT22;2227;47.810;8.810;2023-01-19T20:10:35;-0.40;99.90
4429;DHT22;2227;47.810;8.810;2023-01-19T20:13:03;-0.50;99.90
4429;DHT22;2227;47.810;8.810;2023-01-19T20:15:30;-0.50;99.90
4429;DHT22;2227;47.810;8.810;2023-01-19T20:17:56;-0.40;99.90
4429;DHT22;2227;47.810;8.810;2023-01-19T20:20:23;-0.50;99.90
4429;DHT22;2227;47.810;8.810;2023-01-19T20:22:50;-0.50;99.90
4429;DHT22;2227;47.810;8.810;2023-01-19T20:25:16;-0.50;99.90
4429;DHT22;2227;47.810;8.810;2023-01-19T20:27:43;-0.60;99.90
4429;DHT22;2227;47.810;8.810;2023-01-19T20:30:10;-0.60;99.90
4429;DHT22;2227;47.810;8.810;2023-01-19T20:32:38;-0.60;99.90
4429;DHT22;2227;47.810;8.810;2023-01-19T20:35:04;-0.50;99.90
4429;DHT22;2227;47.810;8.810;2023-01-19T20:37:31;-0.50;99.90
4429;DHT22;2227;47.810;8.810;2023-01-19T20:39:58;-0.60;99.90
4429;DHT22;2227;47.810;8.810;2023-01-19T20:42:25;-0.80;99.90
4429;DHT22;2227;47.810;8.810;2023-01-19T20:44:51;-0.80;99.90
4429;DHT22;2227;47.810;8.810;2023-01-19T20:47:18;-0.80;99.90
4429;DHT22;2227;47.810;8.810;2023-01-19T20:49:44;-0.80;99.90
4429;DHT22;2227;47.810;8.810;2023-01-19T20:52:11;-0.70;99.90
4429;DHT22;2227;47.810;8.810;2023-01-19T20:54:37;-0.80;99.90
4429;DHT22;2227;47.810;8.810;2023-01-19T20:57:05;-0.80;99.90
4429;DHT22;2227;47.810;8.810;2023-01-19T20:59:31;-0.80;99.90
4429;DHT22;2227;47.810;8.810;2023-01-19T21:01:59;-0.70;99.90
4429;DHT22;2227;47.810;8.810;2023-01-19T21:04:26;-0.70;99.90
4429;DHT22;2227;47.810;8.810;2023-01-19T21:06:52;-0.70;99.90
4429;DHT22;2227;47.810;8.810;2023-01-19T21:09:19;-0.80;99.90
4429;DHT22;2227;47.810;8.810;2023-01-19T21:11:48;-0.80;99.90
4429;DHT22;2227;47.810;8.810;2023-01-19T21:14:14;-0.80;99.90
4429;DHT22;2227;47.810;8.810;2023-01-19T21:16:41;-0.70;99.90
4429;DHT22;2227;47.810;8.810;2023-01-19T21:19:08;-0.90;99.90
4429;DHT22;2227;47.810;8.810;2023-01-19T21:21:34;-1.00;99.90
4429;DHT22;2227;47.810;8.810;2023-01-19T21:24:01;-0.90;99.90
4429;DHT22;2227;47.810;8.810;2023-01-19T21:26:28;-0.80;99.90
4429;DHT22;2227;47.810;8.810;2023-01-19T21:28:58;-0.80;99.90
4429;DHT22;2227;47.810;8.810;2023-01-19T21:31:25;-0.70;99.90
4429;DHT22;2227;47.810;8.810;2023-01-19T21:33:53;-0.80;99.90
4429;DHT22;2227;47.810;8.810;2023-01-19T21:36:20;-0.80;99.90
4429;DHT22;2227;47.810;8.810;2023-01-19T21:38:48;-0.90;99.90
4429;DHT22;2227;47.810;8.810;2023-01-19T21:41:15;-0.80;99.90
4429;DHT22;2227;47.810;8.810;2023-01-19T21:43:42;-0.70;99.90
4429;DHT22;2227;47.810;8.810;2023-01-19T21:48:41;-0.60;99.90
4429;DHT22;2227;47.810;8.810;2023-01-19T21:51:08;-0.50;99.90
4429;DHT22;2227;47.810;8.810;2023-01-19T21:53:35;-0.50;99.90
4429;DHT22;2227;47.810;8.810;2023-01-19T21:56:01;-0.40;99.90
4429;DHT22;2227;47.810;8.810;2023-01-19T21:58:28;-0.70;99.90
4429;DHT22;2227;47.810;8.810;2023-01-19T22:01:01;-0.60;99.90